KSVE/SVE METAR and TAF weather

Enter ICAO airport designator
Station Type Date Time Source
KSVE METAR 2019/06/16 20:35 UTC NOAA

KSVE 162035Z AUTO 11008KT 10SM CLR 30/02 A2997 RMK AO2


Station Type Date Time Source
KSVE Decoded METAR 2019/06/16 20:35 UTC NOAA

Susanville Municipal, CA, United States (KSVE) 40-23N 120-34W
Jun 16, 2019 - 04:35 PM EDT / 2019.06.16 2035 UTC
Wind: from the ESE (110 degrees) at 9 MPH (8 KT):0
Visibility: 10 mile(s):0
Sky conditions: clear
Temperature: 86 F (30 C)
Dew Point: 35 F (2 C)
Relative Humidity: 16%
Pressure (altimeter): 29.97 in. Hg (1014 hPa)
ob: KSVE 162035Z AUTO 11008KT 10SM CLR 30/02 A2997 RMK AO2
cycle: 20

Station Type Date Time Source
KSVE TAF UTC NOAA

Error!

Example: see airport list